createdAt,value
2022-08-19T00:01:54.031Z,28.38
2022-08-19T00:04:25.496Z,28.38
2022-08-19T00:06:55.619Z,28.38
2022-08-19T00:09:24.848Z,28.36
2022-08-19T00:11:53.455Z,28.37
2022-08-19T00:14:22.934Z,28.36
2022-08-19T00:16:52.516Z,28.36
2022-08-19T00:19:21.133Z,28.36
2022-08-19T00:21:49.741Z,28.36
2022-08-19T00:24:20.000Z,28.35
2022-08-19T00:26:48.486Z,28.35
2022-08-19T00:29:18.284Z,28.36
2022-08-19T00:31:47.124Z,28.36
2022-08-19T00:34:16.645Z,28.35
2022-08-19T00:36:45.482Z,28.35
2022-08-19T00:39:14.142Z,28.35
2022-08-19T00:41:44.277Z,28.35
2022-08-19T00:44:17.808Z,28.36
2022-08-19T00:46:51.635Z,28.36
2022-08-19T00:49:30.092Z,28.35
2022-08-19T00:52:02.091Z,28.34
2022-08-19T00:54:32.597Z,28.36
2022-08-19T00:57:02.432Z,28.35
2022-08-19T01:00:00.581Z,28.35
2022-08-19T01:02:19.621Z,28.34
2022-08-19T01:04:48.091Z,28.35
2022-08-19T01:07:17.438Z,28.35
2022-08-19T01:09:48.617Z,28.35
2022-08-19T01:12:18.508Z,28.35
2022-08-19T01:14:47.341Z,28.35
2022-08-19T01:17:16.192Z,28.35
2022-08-19T01:19:45.593Z,28.34
2022-08-19T01:22:23.360Z,28.34
2022-08-19T01:24:57.778Z,28.35
2022-08-19T01:27:30.363Z,28.35
2022-08-19T01:30:11.700Z,28.34
2022-08-19T01:32:40.113Z,28.35
2022-08-19T01:35:09.162Z,28.35
2022-08-19T01:37:46.665Z,28.37
2022-08-19T01:40:17.131Z,28.36
2022-08-19T01:42:45.818Z,28.34
2022-08-19T01:45:14.270Z,28.35
2022-08-19T01:47:42.681Z,28.34
2022-08-19T01:50:20.281Z,28.36
2022-08-19T01:53:01.275Z,28.36
2022-08-19T01:55:39.525Z,28.36
2022-08-19T01:58:12.428Z,28.36
2022-08-19T02:00:40.933Z,28.34
2022-08-19T02:03:11.145Z,28.33
2022-08-19T02:05:39.947Z,28.33
2022-08-19T02:08:08.809Z,28.33
2022-08-19T02:10:41.697Z,28.34
2022-08-19T02:13:10.594Z,28.33
2022-08-19T02:15:39.484Z,28.31
2022-08-19T02:18:09.396Z,28.31
2022-08-19T02:20:38.381Z,28.31
2022-08-19T02:23:13.939Z,28.31
2022-08-19T02:25:47.013Z,28.30
2022-08-19T02:28:18.800Z,28.30
2022-08-19T02:30:47.968Z,28.29
2022-08-19T02:33:16.877Z,28.30
2022-08-19T02:35:45.561Z,28.31
2022-08-19T02:38:28.172Z,28.30
2022-08-19T02:40:59.713Z,28.29
2022-08-19T02:43:28.828Z,28.30
2022-08-19T02:45:57.504Z,28.29
2022-08-19T02:48:26.949Z,28.29
2022-08-19T02:50:56.919Z,28.29
2022-08-19T02:53:26.506Z,28.29
2022-08-19T02:55:55.117Z,28.29
2022-08-19T02:58:25.480Z,28.30
2022-08-19T03:00:57.403Z,28.30
2022-08-19T03:03:25.990Z,28.30
2022-08-19T03:06:04.202Z,28.29
2022-08-19T03:08:32.718Z,28.29
2022-08-19T03:11:01.299Z,28.28
2022-08-19T03:13:31.381Z,28.28
2022-08-19T03:15:59.861Z,28.26
2022-08-19T03:18:28.426Z,28.27
2022-08-19T03:20:57.338Z,28.28
2022-08-19T03:23:25.968Z,28.28
2022-08-19T03:26:02.823Z,28.28
2022-08-19T03:28:51.842Z,28.28
2022-08-19T03:31:43.730Z,28.28
2022-08-19T03:34:18.755Z,28.26
2022-08-19T03:36:47.555Z,28.27
2022-08-19T03:39:16.339Z,28.26
2022-08-19T03:41:48.125Z,28.26
2022-08-19T03:44:21.712Z,28.26
2022-08-19T03:46:52.497Z,28.25
2022-08-19T03:49:21.497Z,28.26
2022-08-19T03:51:56.412Z,28.25
2022-08-19T03:54:26.239Z,28.25
2022-08-19T03:56:56.266Z,28.25
2022-08-19T03:59:28.848Z,28.24
2022-08-19T04:01:58.127Z,28.24
2022-08-19T04:04:29.054Z,28.23
2022-08-19T04:06:58.221Z,28.23
2022-08-19T04:09:26.982Z,28.23
2022-08-19T04:11:58.491Z,28.22
2022-08-19T04:14:32.935Z,28.24
2022-08-19T04:17:02.215Z,28.23
2022-08-19T04:19:32.374Z,28.22
2022-08-19T04:22:00.969Z,28.22
2022-08-19T04:24:29.709Z,28.21
2022-08-19T04:26:58.316Z,28.22
2022-08-19T04:29:28.631Z,28.22
2022-08-19T04:31:57.823Z,28.21
2022-08-19T04:34:29.560Z,28.22
2022-08-19T04:36:59.518Z,28.22
2022-08-19T04:39:46.504Z,28.22
2022-08-19T04:42:32.936Z,28.24
2022-08-19T04:45:04.312Z,28.22
2022-08-19T04:47:49.186Z,28.22
2022-08-19T04:50:23.634Z,28.22
2022-08-19T04:52:53.615Z,28.20
2022-08-19T04:55:22.361Z,28.20
2022-08-19T04:57:52.271Z,28.22
2022-08-19T05:00:22.305Z,28.22
2022-08-19T05:02:50.851Z,28.23
2022-08-19T05:05:20.931Z,28.24
2022-08-19T05:07:49.608Z,28.22
2022-08-19T05:10:18.328Z,28.24
2022-08-19T05:12:46.813Z,28.23
2022-08-19T05:15:16.589Z,28.21
2022-08-19T05:18:06.479Z,28.23
2022-08-19T05:20:52.829Z,28.25
2022-08-19T05:23:22.904Z,28.22
2022-08-19T05:25:52.822Z,28.24
2022-08-19T05:28:21.701Z,28.26
2022-08-19T05:30:52.055Z,28.30
2022-08-19T05:33:22.634Z,28.35
2022-08-19T05:35:51.458Z,28.37
2022-08-19T05:38:20.278Z,28.37
2022-08-19T05:40:50.502Z,28.36
2022-08-19T05:43:19.028Z,28.35
2022-08-19T05:45:47.705Z,28.34
2022-08-19T05:48:18.527Z,28.35
2022-08-19T05:50:51.365Z,28.36
2022-08-19T05:53:20.303Z,28.35
2022-08-19T05:55:48.831Z,28.38
2022-08-19T05:58:18.414Z,28.36
2022-08-19T06:00:52.604Z,28.37
2022-08-19T06:03:21.212Z,28.36
2022-08-19T06:05:52.336Z,28.38
2022-08-19T06:08:34.002Z,28.36
2022-08-19T06:11:18.067Z,28.35
2022-08-19T06:13:51.588Z,28.37
2022-08-19T06:16:23.461Z,28.34
2022-08-19T06:18:53.628Z,28.31
2022-08-19T06:21:24.401Z,28.30
2022-08-19T06:23:53.336Z,28.34
2022-08-19T06:26:22.324Z,28.31
2022-08-19T06:28:51.419Z,28.31
2022-08-19T06:31:22.925Z,28.34
2022-08-19T06:33:51.920Z,28.30
2022-08-19T06:36:25.677Z,28.34
2022-08-19T06:38:54.694Z,28.39
2022-08-19T06:41:23.216Z,28.37
2022-08-19T06:43:54.016Z,28.43
2022-08-19T06:46:24.310Z,28.43
2022-08-19T06:48:54.612Z,28.47
2022-08-19T06:51:25.086Z,28.42
2022-08-19T06:53:55.715Z,28.40
2022-08-19T06:56:31.750Z,28.37
2022-08-19T06:59:01.623Z,28.44
2022-08-19T07:01:30.445Z,28.37
2022-08-19T07:03:59.199Z,28.41
2022-08-19T07:06:44.866Z,28.45
2022-08-19T07:09:18.408Z,28.51
2022-08-19T07:11:47.906Z,28.47
2022-08-19T07:14:19.439Z,28.47
2022-08-19T07:16:49.797Z,28.45
2022-08-19T07:19:18.892Z,28.41
2022-08-19T07:21:49.760Z,28.38
2022-08-19T07:24:19.100Z,28.46
2022-08-19T07:26:51.898Z,28.49
2022-08-19T07:29:24.229Z,28.45
2022-08-19T07:31:57.101Z,28.51
2022-08-19T07:34:26.286Z,28.52
2022-08-19T07:36:56.612Z,28.52
2022-08-19T07:39:27.432Z,28.52
2022-08-19T07:41:56.297Z,28.51
2022-08-19T07:44:24.946Z,28.55
2022-08-19T07:46:56.725Z,28.50
2022-08-19T07:49:25.586Z,28.46
2022-08-19T07:51:58.379Z,28.44
2022-08-19T07:54:28.162Z,28.50
2022-08-19T07:56:57.078Z,28.44
2022-08-19T07:59:27.311Z,28.44
2022-08-19T08:01:57.839Z,28.50
2022-08-19T08:04:44.298Z,28.47
2022-08-19T08:07:37.796Z,28.45
2022-08-19T08:10:08.558Z,28.44
2022-08-19T08:13:05.832Z,28.42
2022-08-19T08:15:42.823Z,28.42
2022-08-19T08:18:11.956Z,28.40
2022-08-19T08:20:40.777Z,28.46
2022-08-19T08:23:25.893Z,28.47
2022-08-19T08:25:55.995Z,28.49
2022-08-19T08:28:25.161Z,28.46
2022-08-19T08:30:55.777Z,28.48
2022-08-19T08:33:33.657Z,28.43
2022-08-19T08:36:04.338Z,28.46
2022-08-19T08:38:40.124Z,28.49
2022-08-19T08:41:20.620Z,28.49
2022-08-19T08:43:52.101Z,28.49
2022-08-19T08:46:30.507Z,28.51
2022-08-19T08:49:05.306Z,28.52
2022-08-19T08:51:37.049Z,28.48
2022-08-19T08:54:09.835Z,28.46
2022-08-19T08:56:40.562Z,28.52
2022-08-19T08:59:12.910Z,28.52
2022-08-19T09:01:41.477Z,28.51
2022-08-19T09:04:10.199Z,28.51
2022-08-19T09:06:44.135Z,28.53
2022-08-19T09:09:17.951Z,28.51
2022-08-19T09:12:00.995Z,28.49
2022-08-19T09:14:54.339Z,28.50
2022-08-19T09:17:31.572Z,28.48
2022-08-19T09:20:05.813Z,28.47
2022-08-19T09:22:38.167Z,28.46
2022-08-19T09:25:10.839Z,28.48
2022-08-19T09:27:42.768Z,28.51
2022-08-19T09:30:15.898Z,28.48
2022-08-19T09:32:45.183Z,28.48
2022-08-19T09:35:14.995Z,28.49
2022-08-19T09:37:44.406Z,28.49
2022-08-19T09:40:15.429Z,28.53
2022-08-19T09:42:50.240Z,28.52
2022-08-19T09:45:22.935Z,28.50
2022-08-19T09:47:54.619Z,28.51
2022-08-19T09:50:24.090Z,28.52
2022-08-19T09:52:57.725Z,28.52
2022-08-19T09:55:31.670Z,28.55
2022-08-19T09:58:02.961Z,28.51
2022-08-19T10:00:32.050Z,28.49
2022-08-19T10:03:01.022Z,28.48
2022-08-19T10:05:48.406Z,28.50
2022-08-19T10:08:20.668Z,28.52
2022-08-19T10:10:51.626Z,28.63
2022-08-19T10:13:23.452Z,28.61
2022-08-19T10:15:52.638Z,28.58
2022-08-19T10:18:22.617Z,28.65
2022-08-19T10:20:52.707Z,28.71
2022-08-19T10:23:21.866Z,28.92
2022-08-19T10:25:52.481Z,29.14
2022-08-19T10:28:20.940Z,29.09
2022-08-19T10:30:52.171Z,29.33
2022-08-19T10:33:38.228Z,29.26
2022-08-19T10:36:11.652Z,29.13
2022-08-19T10:38:40.383Z,29.22
2022-08-19T10:41:24.416Z,29.32
2022-08-19T10:43:53.541Z,29.25
2022-08-19T10:46:22.792Z,29.00
2022-08-19T10:48:51.788Z,29.56
2022-08-19T10:51:37.829Z,29.45
2022-08-19T10:54:16.480Z,29.43
2022-08-19T10:56:54.465Z,29.57
2022-08-19T10:59:26.933Z,29.77
2022-08-19T11:01:56.743Z,29.65
2022-08-19T11:04:29.530Z,29.64
2022-08-19T11:06:58.712Z,29.73
2022-08-19T11:09:33.715Z,29.82
2022-08-19T11:12:05.193Z,29.85
2022-08-19T11:14:34.944Z,29.77
2022-08-19T11:17:04.036Z,29.77
2022-08-19T11:19:32.635Z,29.87
2022-08-19T11:22:03.803Z,29.89
2022-08-19T11:24:33.876Z,29.84
2022-08-19T11:27:10.125Z,29.87
2022-08-19T11:29:39.690Z,29.90
2022-08-19T11:32:12.669Z,29.84
2022-08-19T11:34:41.319Z,29.94
2022-08-19T11:37:10.050Z,29.97
2022-08-19T11:39:38.898Z,29.82
2022-08-19T11:42:29.600Z,29.98
2022-08-19T11:44:58.361Z,29.98
2022-08-19T11:47:27.479Z,30.00
2022-08-19T11:49:56.166Z,30.08
2022-08-19T11:52:24.906Z,30.04
2022-08-19T11:54:53.393Z,30.06
2022-08-19T11:57:23.742Z,30.05
2022-08-19T11:59:52.768Z,30.02
2022-08-19T12:02:22.786Z,29.98
2022-08-19T12:04:51.276Z,29.92
2022-08-19T12:07:19.771Z,29.98
2022-08-19T12:09:48.856Z,29.58
2022-08-19T12:12:17.659Z,29.41
2022-08-19T12:14:47.619Z,29.45
2022-08-19T12:17:16.344Z,29.41
2022-08-19T12:19:45.481Z,29.36
2022-08-19T12:22:13.904Z,29.51
2022-08-19T12:24:42.342Z,29.88
2022-08-19T12:27:12.674Z,29.86
2022-08-19T12:29:42.571Z,29.99
2022-08-19T12:32:12.498Z,29.96
2022-08-19T12:34:41.050Z,29.99
2022-08-19T12:37:09.562Z,30.11
2022-08-19T12:39:40.017Z,30.11
2022-08-19T12:42:09.905Z,30.02
2022-08-19T12:44:41.667Z,30.07
2022-08-19T12:47:14.473Z,30.08
2022-08-19T12:49:55.172Z,30.09
2022-08-19T12:52:26.073Z,30.14
2022-08-19T12:54:55.708Z,30.07
2022-08-19T12:57:32.197Z,30.16
2022-08-19T13:00:05.282Z,30.02
2022-08-19T13:02:38.620Z,29.99
2022-08-19T13:05:12.210Z,30.24
2022-08-19T13:07:41.504Z,30.26
2022-08-19T13:10:13.374Z,30.14
2022-08-19T13:12:42.912Z,29.81
2022-08-19T13:15:13.104Z,29.65
2022-08-19T13:17:46.325Z,29.63
2022-08-19T13:20:14.802Z,29.60
2022-08-19T13:22:43.413Z,29.55
2022-08-19T13:25:12.056Z,29.54
2022-08-19T13:27:41.002Z,29.48
2022-08-19T13:30:29.237Z,29.44
2022-08-19T13:33:19.078Z,29.52
2022-08-19T13:35:49.814Z,29.50
2022-08-19T13:38:20.005Z,29.86
2022-08-19T13:40:48.599Z,29.90
2022-08-19T13:43:22.572Z,30.05
2022-08-19T13:45:53.817Z,30.11
2022-08-19T13:48:23.698Z,30.05
2022-08-19T13:50:52.248Z,30.00
2022-08-19T13:53:20.839Z,30.02
2022-08-19T13:55:50.969Z,30.34
2022-08-19T13:58:19.569Z,30.32
2022-08-19T14:00:48.638Z,30.31
2022-08-19T14:03:17.207Z,30.37
2022-08-19T14:05:47.778Z,30.38
2022-08-19T14:08:16.258Z,30.44
2022-08-19T14:10:45.585Z,30.45
2022-08-19T14:13:16.904Z,30.51
2022-08-19T14:15:45.423Z,30.55
2022-08-19T14:18:13.957Z,30.59
2022-08-19T14:20:42.695Z,30.63
2022-08-19T14:23:13.255Z,30.61
2022-08-19T14:25:41.744Z,30.65
2022-08-19T14:28:10.204Z,30.61
2022-08-19T14:30:39.704Z,30.57
2022-08-19T14:33:09.415Z,30.66
2022-08-19T14:35:38.147Z,30.72
2022-08-19T14:38:07.339Z,30.74
2022-08-19T14:40:37.252Z,30.73
2022-08-19T14:43:06.421Z,30.68
2022-08-19T14:45:38.335Z,30.63
2022-08-19T14:48:07.169Z,30.26
2022-08-19T14:50:36.153Z,30.13
2022-08-19T14:53:11.892Z,30.04
2022-08-19T14:55:45.087Z,29.98
2022-08-19T14:58:29.823Z,30.01
2022-08-19T15:01:00.798Z,29.94
2022-08-19T15:03:29.638Z,29.93
2022-08-19T15:05:58.916Z,29.95
2022-08-19T15:08:27.969Z,29.90
2022-08-19T15:10:58.036Z,29.93
2022-08-19T15:13:27.678Z,29.95
2022-08-19T15:15:56.493Z,29.90
2022-08-19T15:18:25.168Z,29.86
2022-08-19T15:20:53.657Z,29.84
2022-08-19T15:23:22.958Z,29.78
2022-08-19T15:25:54.513Z,29.78
2022-08-19T15:28:24.504Z,29.76
2022-08-19T15:30:53.149Z,29.82
2022-08-19T15:33:21.673Z,29.83
2022-08-19T15:35:51.668Z,29.90
2022-08-19T15:38:22.416Z,29.90
2022-08-19T15:40:51.321Z,29.89
2022-08-19T15:43:21.312Z,29.89
2022-08-19T15:45:51.195Z,29.88
2022-08-19T15:48:19.672Z,29.90
2022-08-19T15:50:48.099Z,29.88
2022-08-19T15:53:16.565Z,29.85
2022-08-19T15:55:46.427Z,29.83
2022-08-19T15:58:49.269Z,29.82
2022-08-19T16:01:40.811Z,29.88
2022-08-19T16:04:27.089Z,29.84
2022-08-19T16:06:57.724Z,29.83
2022-08-19T16:09:29.030Z,29.79
2022-08-19T16:12:01.648Z,29.78
2022-08-19T16:14:31.282Z,29.79
2022-08-19T16:17:02.179Z,29.78
2022-08-19T16:19:33.328Z,29.80
2022-08-19T16:22:01.909Z,29.78
2022-08-19T16:24:30.403Z,29.76
2022-08-19T16:26:58.849Z,29.76
2022-08-19T16:29:33.943Z,29.74
2022-08-19T16:32:11.517Z,29.83
2022-08-19T16:34:40.215Z,29.79
2022-08-19T16:37:08.721Z,29.75
2022-08-19T16:39:37.281Z,29.75
2022-08-19T16:42:07.677Z,29.76
2022-08-19T16:44:39.444Z,29.80
2022-08-19T16:47:09.603Z,29.82
2022-08-19T16:49:54.437Z,29.81
2022-08-19T16:52:27.160Z,29.77
2022-08-19T16:54:56.002Z,29.78
2022-08-19T16:57:24.980Z,29.77
2022-08-19T16:59:53.584Z,29.81
2022-08-19T17:02:30.851Z,29.81
2022-08-19T17:04:59.569Z,29.82
2022-08-19T17:07:28.517Z,29.81
2022-08-19T17:09:57.273Z,29.80
2022-08-19T17:12:30.533Z,29.77
2022-08-19T17:15:01.435Z,29.75
2022-08-19T17:17:31.782Z,29.76
2022-08-19T17:20:00.493Z,29.73
2022-08-19T17:22:29.846Z,29.70
2022-08-19T17:24:58.698Z,29.69
2022-08-19T17:27:31.459Z,29.70
2022-08-19T17:30:02.721Z,29.69
2022-08-19T17:32:35.630Z,29.67
2022-08-19T17:35:05.242Z,29.64
2022-08-19T17:37:34.993Z,29.29
2022-08-19T17:40:03.993Z,29.39
2022-08-19T17:42:32.628Z,29.40
2022-08-19T17:45:01.093Z,29.46
2022-08-19T17:47:29.887Z,29.56
2022-08-19T17:49:59.971Z,29.52
2022-08-19T17:52:28.534Z,29.52
2022-08-19T17:54:57.147Z,29.55
2022-08-19T17:57:25.590Z,29.55
2022-08-19T17:59:54.144Z,29.54
2022-08-19T18:02:23.759Z,29.57
2022-08-19T18:04:52.231Z,29.51
2022-08-19T18:07:22.421Z,29.56
2022-08-19T18:09:52.863Z,29.53
2022-08-19T18:12:24.662Z,29.42
2022-08-19T18:14:53.249Z,29.32
2022-08-19T18:17:23.439Z,29.24
2022-08-19T18:19:52.017Z,29.26
2022-08-19T18:22:27.058Z,29.21
2022-08-19T18:24:56.299Z,29.20
2022-08-19T18:27:24.825Z,29.20
2022-08-19T18:29:54.660Z,29.24
2022-08-19T18:32:25.960Z,29.29
2022-08-19T18:34:56.257Z,29.34
2022-08-19T18:37:27.496Z,29.39
2022-08-19T18:40:13.572Z,29.43
2022-08-19T18:43:03.461Z,29.44
2022-08-19T18:45:50.513Z,29.41
2022-08-19T18:48:36.362Z,29.39
2022-08-19T18:51:04.985Z,29.43
2022-08-19T18:53:35.975Z,29.46
2022-08-19T18:56:05.666Z,29.44
2022-08-19T18:58:35.069Z,29.43
2022-08-19T19:01:11.632Z,29.43
2022-08-19T19:03:42.411Z,29.24
2022-08-19T19:06:12.893Z,28.84
2022-08-19T19:08:42.828Z,28.77
2022-08-19T19:11:11.302Z,28.74
2022-08-19T19:13:41.102Z,28.60
2022-08-19T19:16:11.716Z,28.55
2022-08-19T19:18:40.223Z,28.54
2022-08-19T19:21:09.494Z,28.49
2022-08-19T19:23:40.914Z,28.50
2022-08-19T19:26:11.023Z,28.58
2022-08-19T19:28:44.061Z,28.70
2022-08-19T19:31:16.323Z,28.88
2022-08-19T19:33:45.418Z,28.78
2022-08-19T19:36:14.031Z,28.60
2022-08-19T19:38:48.321Z,28.47
2022-08-19T19:41:20.678Z,28.37
2022-08-19T19:43:59.922Z,28.23
2022-08-19T19:46:38.243Z,28.17
2022-08-19T19:49:07.065Z,28.11
2022-08-19T19:51:37.669Z,28.06
2022-08-19T19:54:06.833Z,28.04
2022-08-19T19:56:36.972Z,28.09
2022-08-19T19:59:05.720Z,27.96
2022-08-19T20:01:35.206Z,27.93
2022-08-19T20:04:04.798Z,27.93
2022-08-19T20:06:34.101Z,27.96
2022-08-19T20:09:11.018Z,27.97
2022-08-19T20:11:42.672Z,28.04
2022-08-19T20:14:12.919Z,28.11
2022-08-19T20:16:44.133Z,28.09
2022-08-19T20:19:14.639Z,28.05
2022-08-19T20:21:46.764Z,28.08
2022-08-19T20:24:20.617Z,28.11
2022-08-19T20:26:53.359Z,28.10
2022-08-19T20:29:39.356Z,28.28
2022-08-19T20:32:10.431Z,28.30
2022-08-19T20:34:39.362Z,28.16
2022-08-19T20:37:09.549Z,28.16
2022-08-19T20:39:38.626Z,28.22
2022-08-19T20:42:08.644Z,28.30
2022-08-19T20:44:37.900Z,28.43
2022-08-19T20:47:06.968Z,28.53
2022-08-19T20:49:35.833Z,28.66
2022-08-19T20:52:06.316Z,28.71
2022-08-19T20:54:35.539Z,28.62
2022-08-19T20:57:05.549Z,28.68
2022-08-19T20:59:37.888Z,28.70
2022-08-19T21:02:06.766Z,28.76
2022-08-19T21:04:35.443Z,28.81
2022-08-19T21:07:03.908Z,28.83
2022-08-19T21:09:33.533Z,28.83
2022-08-19T21:12:05.063Z,28.81
2022-08-19T21:14:33.547Z,28.83
2022-08-19T21:17:03.454Z,28.65
2022-08-19T21:19:31.943Z,28.78
2022-08-19T21:22:01.441Z,28.63
2022-08-19T21:24:31.448Z,28.69
2022-08-19T21:27:00.393Z,28.80
2022-08-19T21:29:28.907Z,28.76
2022-08-19T21:31:57.445Z,28.80
2022-08-19T21:34:27.323Z,28.84
2022-08-19T21:36:56.228Z,28.84
2022-08-19T21:39:24.928Z,28.84
2022-08-19T21:41:53.385Z,28.84
2022-08-19T21:44:21.924Z,28.82
2022-08-19T21:46:50.791Z,28.81
2022-08-19T21:49:19.750Z,28.82
2022-08-19T21:51:49.875Z,28.81
2022-08-19T21:54:18.349Z,28.81
2022-08-19T21:56:47.123Z,28.82
2022-08-19T21:59:16.931Z,28.80
2022-08-19T22:01:49.670Z,28.79
2022-08-19T22:04:22.640Z,28.76
2022-08-19T22:06:52.537Z,28.69
2022-08-19T22:09:21.621Z,28.53
2022-08-19T22:11:50.215Z,28.70
2022-08-19T22:14:18.695Z,28.75
2022-08-19T22:16:47.493Z,28.76
2022-08-19T22:19:16.081Z,28.68
2022-08-19T22:21:44.556Z,28.73
2022-08-19T22:24:14.474Z,28.67
2022-08-19T22:26:42.911Z,28.77
2022-08-19T22:29:11.511Z,28.77
2022-08-19T22:31:44.385Z,28.80
2022-08-19T22:34:12.816Z,28.81
2022-08-19T22:36:41.287Z,28.71
2022-08-19T22:39:09.993Z,28.74
2022-08-19T22:41:40.910Z,28.72
2022-08-19T22:44:11.429Z,28.79
2022-08-19T22:46:40.003Z,28.82
2022-08-19T22:49:08.538Z,28.82
2022-08-19T22:51:54.479Z,28.82
2022-08-19T22:54:23.061Z,28.82
2022-08-19T22:56:53.442Z,28.80
2022-08-19T22:59:22.530Z,28.80
2022-08-19T23:01:50.977Z,28.79
2022-08-19T23:04:19.500Z,28.78
2022-08-19T23:06:47.954Z,28.79
2022-08-19T23:09:16.971Z,28.77
2022-08-19T23:11:45.984Z,28.76
2022-08-19T23:14:16.958Z,28.76
2022-08-19T23:16:50.660Z,28.78
2022-08-19T23:19:20.424Z,28.78
2022-08-19T23:21:49.058Z,28.79
2022-08-19T23:24:17.670Z,28.79
2022-08-19T23:27:00.243Z,28.77
2022-08-19T23:29:49.323Z,28.76
2022-08-19T23:32:18.414Z,28.76
2022-08-19T23:34:47.046Z,28.76
2022-08-19T23:37:15.640Z,28.78
2022-08-19T23:39:45.247Z,28.77
2022-08-19T23:42:14.231Z,28.77
2022-08-19T23:44:52.325Z,28.76
2022-08-19T23:47:22.090Z,28.75
2022-08-19T23:49:50.905Z,28.75
2022-08-19T23:52:19.712Z,28.77
2022-08-19T23:54:48.107Z,28.75
2022-08-19T23:57:16.550Z,28.74
2022-08-19T23:59:46.378Z,28.75
